createdAt,value
2018-12-02T00:00:05.469Z,971.29
2018-12-02T00:01:04.547Z,971.29
2018-12-02T00:02:05.217Z,971.38
2018-12-02T00:03:05.328Z,971.40
2018-12-02T00:04:05.207Z,971.29
2018-12-02T00:05:05.346Z,971.43
2018-12-02T00:06:05.323Z,971.40
2018-12-02T00:07:05.298Z,971.32
2018-12-02T00:08:05.420Z,971.40
2018-12-02T00:09:05.272Z,971.35
2018-12-02T00:10:04.945Z,971.43
2018-12-02T00:11:04.923Z,971.46
2018-12-02T00:12:04.891Z,971.38
2018-12-02T00:13:05.214Z,971.26
2018-12-02T00:14:04.636Z,971.38
2018-12-02T00:15:04.575Z,971.37
2018-12-02T00:16:04.796Z,971.26
2018-12-02T00:17:04.881Z,971.32
2018-12-02T00:18:04.799Z,971.32
2018-12-02T00:19:05.274Z,971.29
2018-12-02T00:20:05.432Z,971.23
2018-12-02T00:21:05.365Z,971.23
2018-12-02T00:22:04.616Z,971.35
2018-12-02T00:23:05.209Z,971.21
2018-12-02T00:24:05.278Z,971.26
2018-12-02T00:25:04.438Z,971.09
2018-12-02T00:26:04.445Z,971.20
2018-12-02T00:27:05.248Z,970.95
2018-12-02T00:28:10.387Z,971.20
2018-12-02T00:29:04.854Z,971.15
2018-12-02T00:30:05.064Z,971.06
2018-12-02T00:31:05.135Z,971.12
2018-12-02T00:32:05.185Z,970.92
2018-12-02T00:33:05.169Z,970.98
2018-12-02T00:34:05.117Z,970.95
2018-12-02T00:35:05.195Z,971.00
2018-12-02T00:36:04.913Z,970.97
2018-12-02T00:37:05.044Z,970.89
2018-12-02T00:38:05.449Z,971.14
2018-12-02T00:39:05.343Z,971.11
2018-12-02T00:40:05.531Z,971.09
2018-12-02T00:41:04.508Z,971.09
2018-12-02T00:42:05.380Z,971.20
2018-12-02T00:43:05.295Z,971.17
2018-12-02T00:44:05.054Z,971.00
2018-12-02T00:45:04.940Z,971.06
2018-12-02T00:46:04.977Z,971.11
2018-12-02T00:47:05.255Z,970.97
2018-12-02T00:48:05.335Z,971.11
2018-12-02T00:49:04.536Z,970.94
2018-12-02T00:50:05.462Z,970.97
2018-12-02T00:51:05.385Z,971.11
2018-12-02T00:52:04.630Z,970.89
2018-12-02T00:53:04.663Z,971.06
2018-12-02T00:54:04.555Z,970.89
2018-12-02T00:55:10.308Z,970.91
2018-12-02T00:56:04.718Z,970.89
2018-12-02T00:57:05.294Z,970.83
2018-12-02T00:58:05.297Z,970.77
2018-12-02T00:59:05.458Z,970.86
2018-12-02T01:00:04.725Z,970.72
2018-12-02T01:01:05.349Z,970.74
2018-12-02T01:02:05.717Z,970.77
2018-12-02T01:03:05.309Z,970.69
2018-12-02T01:04:05.427Z,970.83
2018-12-02T01:05:04.503Z,970.60
2018-12-02T01:06:04.460Z,970.63
2018-12-02T01:07:04.590Z,970.58
2018-12-02T01:08:04.656Z,970.69
2018-12-02T01:09:04.709Z,970.60
2018-12-02T01:10:05.292Z,970.55
2018-12-02T01:11:05.436Z,970.55
2018-12-02T01:12:05.296Z,970.49
2018-12-02T01:13:05.444Z,970.63
2018-12-02T01:14:05.397Z,970.49
2018-12-02T01:15:05.170Z,970.49
2018-12-02T01:16:05.352Z,970.60
2018-12-02T01:17:05.430Z,970.43
2018-12-02T01:18:05.531Z,970.52
2018-12-02T01:19:05.358Z,970.60
2018-12-02T01:20:05.414Z,970.55
2018-12-02T01:21:04.483Z,970.42
2018-12-02T01:22:04.713Z,970.52
2018-12-02T01:23:04.753Z,970.57
2018-12-02T01:24:04.680Z,970.43
2018-12-02T01:25:04.949Z,970.43
2018-12-02T01:26:04.807Z,970.49
2018-12-02T01:27:05.440Z,970.55
2018-12-02T01:28:04.538Z,970.46
2018-12-02T01:29:10.374Z,970.36
2018-12-02T01:30:04.812Z,970.39
2018-12-02T01:31:04.843Z,970.46
2018-12-02T01:32:04.730Z,970.31
2018-12-02T01:33:05.578Z,970.42
2018-12-02T01:34:05.372Z,970.34
2018-12-02T01:35:04.580Z,970.28
2018-12-02T01:36:04.825Z,970.34
2018-12-02T01:37:04.732Z,970.20
2018-12-02T01:38:04.805Z,970.36
2018-12-02T01:39:05.540Z,970.37
2018-12-02T01:40:04.871Z,970.25
2018-12-02T01:41:04.886Z,970.17
2018-12-02T01:42:05.092Z,970.31
2018-12-02T01:43:05.469Z,970.23
2018-12-02T01:44:04.424Z,970.14
2018-12-02T01:45:04.581Z,970.34
2018-12-02T01:46:05.425Z,970.28
2018-12-02T01:47:04.514Z,970.40
2018-12-02T01:48:04.586Z,970.14
2018-12-02T01:49:04.682Z,970.31
2018-12-02T01:50:04.756Z,970.34
2018-12-02T01:51:04.710Z,970.14
2018-12-02T01:52:05.398Z,970.09
2018-12-02T01:53:05.316Z,970.20
2018-12-02T01:54:05.391Z,970.23
2018-12-02T01:55:05.368Z,970.09
2018-12-02T01:56:04.444Z,970.11
2018-12-02T01:57:05.002Z,970.06
2018-12-02T01:58:05.434Z,970.17
2018-12-02T01:59:05.322Z,970.00
2018-12-02T02:00:05.361Z,970.14
2018-12-02T02:01:04.711Z,970.06
2018-12-02T02:02:04.828Z,970.06
2018-12-02T02:03:04.466Z,969.97
2018-12-02T02:04:05.484Z,970.11
2018-12-02T02:05:04.544Z,970.06
2018-12-02T02:06:04.461Z,970.00
2018-12-02T02:07:05.384Z,970.00
2018-12-02T02:08:05.477Z,969.87
2018-12-02T02:09:05.383Z,969.81
2018-12-02T02:10:05.522Z,969.78
2018-12-02T02:11:05.399Z,969.84
2018-12-02T02:12:04.622Z,969.76
2018-12-02T02:13:04.779Z,969.90
2018-12-02T02:14:05.469Z,969.79
2018-12-02T02:15:04.506Z,969.93
2018-12-02T02:16:05.518Z,969.79
2018-12-02T02:17:05.478Z,969.87
2018-12-02T02:18:04.470Z,969.93
2018-12-02T02:19:04.732Z,969.84
2018-12-02T02:20:04.747Z,969.84
2018-12-02T02:21:04.663Z,969.87
2018-12-02T02:22:05.487Z,969.67
2018-12-02T02:23:04.522Z,970.00
2018-12-02T02:24:04.436Z,969.82
2018-12-02T02:25:04.604Z,969.90
2018-12-02T02:26:04.617Z,969.85
2018-12-02T02:27:04.537Z,969.73
2018-12-02T02:28:09.830Z,969.71
2018-12-02T02:29:05.205Z,969.77
2018-12-02T02:30:05.251Z,969.65
2018-12-02T02:31:05.433Z,969.65
2018-12-02T02:32:05.500Z,969.68
2018-12-02T02:33:04.485Z,969.77
2018-12-02T02:34:04.556Z,969.79
2018-12-02T02:35:04.777Z,969.74
2018-12-02T02:36:05.436Z,969.82
2018-12-02T02:37:04.439Z,969.68
2018-12-02T02:38:04.643Z,969.98
2018-12-02T02:39:04.497Z,969.77
2018-12-02T02:40:04.503Z,969.77
2018-12-02T02:41:04.636Z,969.74
2018-12-02T02:42:04.635Z,969.71
2018-12-02T02:43:04.540Z,969.66
2018-12-02T02:44:04.468Z,969.60
2018-12-02T02:45:04.435Z,969.63
2018-12-02T02:46:05.318Z,969.68
2018-12-02T02:47:05.353Z,969.74
2018-12-02T02:48:09.599Z,969.69
2018-12-02T02:49:04.980Z,969.66
2018-12-02T02:50:04.509Z,969.52
2018-12-02T02:51:04.550Z,969.63
2018-12-02T02:52:04.638Z,969.55
2018-12-02T02:53:04.516Z,969.49
2018-12-02T02:54:04.582Z,969.44
2018-12-02T02:55:04.616Z,969.52
2018-12-02T02:56:05.428Z,969.47
2018-12-02T02:57:05.444Z,969.52
2018-12-02T02:58:05.424Z,969.47
2018-12-02T02:59:05.315Z,969.47
2018-12-02T03:00:04.622Z,969.44
2018-12-02T03:01:04.553Z,969.36
2018-12-02T03:02:04.518Z,969.39
2018-12-02T03:03:05.430Z,969.30
2018-12-02T03:04:05.477Z,969.44
2018-12-02T03:05:05.939Z,969.42
2018-12-02T03:06:04.625Z,969.33
2018-12-02T03:07:04.395Z,969.44
2018-12-02T03:08:04.632Z,969.36
2018-12-02T03:09:04.580Z,969.30
2018-12-02T03:10:04.567Z,969.28
2018-12-02T03:11:04.518Z,969.36
2018-12-02T03:12:04.546Z,969.19
2018-12-02T03:13:04.787Z,969.17
2018-12-02T03:14:05.055Z,969.22
2018-12-02T03:15:04.474Z,969.19
2018-12-02T03:16:05.314Z,969.14
2018-12-02T03:17:04.995Z,969.17
2018-12-02T03:18:04.730Z,969.19
2018-12-02T03:19:04.501Z,969.08
2018-12-02T03:20:05.271Z,969.22
2018-12-02T03:21:05.890Z,969.22
2018-12-02T03:22:04.542Z,969.28
2018-12-02T03:23:04.730Z,969.28
2018-12-02T03:24:04.622Z,969.28
2018-12-02T03:25:04.624Z,969.11
2018-12-02T03:26:04.608Z,969.17
2018-12-02T03:27:04.646Z,969.23
2018-12-02T03:28:04.457Z,969.12
2018-12-02T03:29:04.477Z,969.12
2018-12-02T03:30:04.633Z,969.14
2018-12-02T03:31:04.532Z,969.03
2018-12-02T03:32:04.593Z,969.09
2018-12-02T03:33:04.720Z,969.06
2018-12-02T03:34:04.796Z,969.12
2018-12-02T03:35:04.904Z,969.09
2018-12-02T03:36:04.610Z,969.00
2018-12-02T03:37:04.540Z,969.00
2018-12-02T03:38:04.523Z,968.86
2018-12-02T03:39:04.640Z,969.03
2018-12-02T03:40:05.343Z,969.08
2018-12-02T03:41:04.493Z,968.86
2018-12-02T03:42:04.497Z,969.05
2018-12-02T03:43:04.636Z,968.94
2018-12-02T03:44:04.669Z,968.83
2018-12-02T03:45:04.485Z,968.86
2018-12-02T03:46:10.034Z,968.74
2018-12-02T03:47:05.354Z,968.88
2018-12-02T03:48:04.626Z,968.80
2018-12-02T03:49:04.603Z,968.61
2018-12-02T03:50:05.398Z,968.64
2018-12-02T03:51:05.433Z,968.69
2018-12-02T03:52:05.834Z,968.61
2018-12-02T03:53:04.495Z,968.67
2018-12-02T03:54:04.544Z,968.61
2018-12-02T03:55:04.718Z,968.50
2018-12-02T03:56:04.616Z,968.55
2018-12-02T03:57:04.700Z,968.52
2018-12-02T03:58:04.660Z,968.41
2018-12-02T03:59:04.965Z,968.58
2018-12-02T04:00:04.960Z,968.38
2018-12-02T04:01:04.486Z,968.46
2018-12-02T04:02:04.543Z,968.38
2018-12-02T04:03:04.538Z,968.49
2018-12-02T04:04:05.360Z,968.41
2018-12-02T04:05:04.510Z,968.38
2018-12-02T04:06:04.687Z,968.21
2018-12-02T04:07:04.616Z,968.24
2018-12-02T04:08:04.572Z,968.38
2018-12-02T04:09:04.684Z,968.26
2018-12-02T04:10:04.569Z,968.21
2018-12-02T04:11:04.701Z,968.12
2018-12-02T04:12:04.682Z,968.26
2018-12-02T04:13:04.643Z,968.21
2018-12-02T04:14:04.586Z,968.29
2018-12-02T04:15:04.645Z,968.12
2018-12-02T04:16:04.513Z,968.04
2018-12-02T04:17:04.998Z,968.18
2018-12-02T04:18:05.012Z,967.89
2018-12-02T04:19:05.082Z,967.95
2018-12-02T04:20:04.982Z,967.90
2018-12-02T04:21:04.605Z,967.92
2018-12-02T04:22:04.603Z,968.01
2018-12-02T04:23:05.549Z,968.06
2018-12-02T04:24:04.539Z,967.92
2018-12-02T04:25:04.672Z,967.98
2018-12-02T04:26:04.511Z,967.84
2018-12-02T04:27:04.607Z,967.92
2018-12-02T04:28:09.708Z,967.86
2018-12-02T04:29:05.082Z,967.86
2018-12-02T04:30:05.144Z,967.89
2018-12-02T04:31:04.679Z,967.86
2018-12-02T04:32:04.590Z,967.83
2018-12-02T04:33:04.550Z,967.72
2018-12-02T04:34:04.700Z,967.74
2018-12-02T04:35:04.679Z,967.74
2018-12-02T04:36:04.863Z,967.66
2018-12-02T04:37:04.978Z,967.60
2018-12-02T04:38:04.558Z,967.54
2018-12-02T04:39:04.726Z,967.60
2018-12-02T04:40:04.618Z,967.65
2018-12-02T04:41:04.746Z,967.57
2018-12-02T04:42:04.899Z,967.57
2018-12-02T04:43:04.665Z,967.68
2018-12-02T04:44:05.437Z,967.51
2018-12-02T04:45:04.524Z,967.57
2018-12-02T04:46:04.514Z,967.59
2018-12-02T04:47:04.453Z,967.65
2018-12-02T04:48:04.604Z,967.40
2018-12-02T04:49:04.741Z,967.59
2018-12-02T04:50:04.549Z,967.59
2018-12-02T04:51:04.600Z,967.62
2018-12-02T04:52:04.741Z,967.50
2018-12-02T04:53:04.717Z,967.42
2018-12-02T04:54:10.305Z,967.42
2018-12-02T04:55:04.669Z,967.45
2018-12-02T04:56:04.658Z,967.64
2018-12-02T04:57:04.604Z,967.59
2018-12-02T04:58:04.596Z,967.56
2018-12-02T04:59:04.569Z,967.28
2018-12-02T05:00:04.609Z,967.39
2018-12-02T05:01:04.757Z,967.39
2018-12-02T05:02:04.765Z,967.28
2018-12-02T05:03:04.651Z,967.34
2018-12-02T05:04:04.716Z,967.20
2018-12-02T05:05:04.803Z,967.22
2018-12-02T05:06:04.627Z,967.25
2018-12-02T05:07:04.783Z,967.22
2018-12-02T05:08:04.744Z,967.22
2018-12-02T05:09:04.768Z,967.22
2018-12-02T05:10:04.979Z,967.22
2018-12-02T05:11:05.001Z,967.28
2018-12-02T05:12:04.566Z,967.33
2018-12-02T05:13:04.796Z,967.19
2018-12-02T05:14:04.816Z,967.19
2018-12-02T05:15:04.879Z,967.22
2018-12-02T05:16:04.730Z,967.11
2018-12-02T05:17:05.075Z,966.95
2018-12-02T05:18:05.045Z,967.22
2018-12-02T05:19:05.081Z,967.11
2018-12-02T05:20:05.329Z,967.19
2018-12-02T05:21:05.307Z,967.01
2018-12-02T05:22:04.484Z,967.00
2018-12-02T05:23:04.566Z,967.14
2018-12-02T05:24:05.386Z,967.01
2018-12-02T05:25:06.262Z,967.05
2018-12-02T05:26:05.277Z,967.14
2018-12-02T05:27:04.583Z,967.03
2018-12-02T05:28:09.883Z,966.95
2018-12-02T05:29:04.709Z,967.03
2018-12-02T05:30:04.598Z,966.92
2018-12-02T05:31:04.658Z,967.01
2018-12-02T05:32:04.777Z,966.98
2018-12-02T05:33:04.841Z,966.87
2018-12-02T05:34:04.981Z,966.95
2018-12-02T05:35:05.124Z,966.92
2018-12-02T05:36:05.142Z,966.87
2018-12-02T05:37:05.180Z,966.84
2018-12-02T05:38:05.057Z,966.87
2018-12-02T05:39:05.257Z,966.81
2018-12-02T05:40:05.385Z,966.87
2018-12-02T05:41:05.509Z,966.92
2018-12-02T05:42:05.135Z,966.84
2018-12-02T05:43:04.667Z,966.87
2018-12-02T05:44:04.625Z,966.98
2018-12-02T05:45:04.639Z,967.03
2018-12-02T05:46:04.546Z,966.87
2018-12-02T05:47:05.538Z,966.98
2018-12-02T05:48:04.819Z,966.87
2018-12-02T05:49:04.899Z,966.92
2018-12-02T05:50:04.652Z,966.98
2018-12-02T05:51:04.955Z,967.14
2018-12-02T05:52:04.964Z,967.17
2018-12-02T05:53:04.908Z,967.14
2018-12-02T05:54:04.909Z,966.92
2018-12-02T05:55:05.048Z,967.02
2018-12-02T05:56:05.348Z,966.92
2018-12-02T05:57:05.136Z,966.98
2018-12-02T05:58:04.661Z,966.95
2018-12-02T05:59:04.810Z,966.87
2018-12-02T06:00:04.652Z,966.98
2018-12-02T06:01:04.630Z,966.87
2018-12-02T06:02:04.870Z,966.92
2018-12-02T06:03:04.812Z,966.81
2018-12-02T06:04:04.725Z,966.95
2018-12-02T06:05:04.722Z,966.75
2018-12-02T06:06:04.647Z,966.78
2018-12-02T06:07:04.851Z,966.73
2018-12-02T06:08:04.951Z,966.84
2018-12-02T06:09:04.748Z,966.87
2018-12-02T06:10:04.883Z,966.73
2018-12-02T06:11:04.834Z,966.84
2018-12-02T06:12:04.639Z,966.78
2018-12-02T06:13:04.699Z,966.76
2018-12-02T06:14:04.909Z,966.70
2018-12-02T06:15:04.810Z,966.70
2018-12-02T06:16:04.631Z,966.87
2018-12-02T06:17:04.691Z,966.64
2018-12-02T06:18:04.973Z,966.87
2018-12-02T06:19:04.999Z,966.70
2018-12-02T06:20:05.305Z,966.70
2018-12-02T06:21:04.892Z,966.67
2018-12-02T06:22:04.788Z,966.64
2018-12-02T06:23:04.820Z,966.67
2018-12-02T06:24:04.724Z,966.70
2018-12-02T06:25:04.690Z,966.70
2018-12-02T06:26:05.272Z,966.64
2018-12-02T06:27:05.360Z,966.59
2018-12-02T06:28:09.629Z,966.64
2018-12-02T06:29:05.126Z,966.53
2018-12-02T06:30:04.604Z,966.53
2018-12-02T06:31:04.734Z,966.47
2018-12-02T06:32:04.710Z,966.67
2018-12-02T06:33:04.760Z,966.42
2018-12-02T06:34:04.874Z,966.45
2018-12-02T06:35:04.806Z,966.47
2018-12-02T06:36:05.114Z,966.42
2018-12-02T06:37:05.071Z,966.42
2018-12-02T06:38:05.123Z,966.36
2018-12-02T06:39:05.092Z,966.39
2018-12-02T06:40:05.138Z,966.36
2018-12-02T06:41:05.087Z,966.39
2018-12-02T06:42:04.763Z,966.41
2018-12-02T06:43:05.246Z,966.44
2018-12-02T06:44:04.695Z,966.47
2018-12-02T06:45:04.886Z,966.38
2018-12-02T06:46:04.999Z,966.47
2018-12-02T06:47:05.014Z,966.35
2018-12-02T06:48:04.682Z,966.35
2018-12-02T06:49:04.760Z,966.41
2018-12-02T06:50:04.936Z,966.41
2018-12-02T06:51:05.155Z,966.38
2018-12-02T06:52:04.869Z,966.43
2018-12-02T06:53:05.279Z,966.40
2018-12-02T06:54:05.447Z,966.46
2018-12-02T06:55:04.757Z,966.52
2018-12-02T06:56:04.777Z,966.57
2018-12-02T06:57:04.767Z,966.51
2018-12-02T06:58:05.190Z,966.51
2018-12-02T06:59:04.879Z,966.34
2018-12-02T07:00:04.803Z,966.43
2018-12-02T07:01:05.111Z,966.51
2018-12-02T07:02:04.829Z,966.48
2018-12-02T07:03:09.827Z,966.42
2018-12-02T07:04:05.244Z,966.45
2018-12-02T07:05:05.179Z,966.42
2018-12-02T07:06:04.805Z,966.51
2018-12-02T07:07:04.484Z,966.48
2018-12-02T07:08:04.758Z,966.40
2018-12-02T07:09:04.603Z,966.42
2018-12-02T07:10:04.737Z,966.48
2018-12-02T07:11:04.737Z,966.37
2018-12-02T07:12:04.873Z,966.20
2018-12-02T07:13:04.877Z,966.31
2018-12-02T07:14:05.395Z,966.36
2018-12-02T07:15:05.293Z,966.28
2018-12-02T07:16:04.682Z,966.36
2018-12-02T07:17:04.841Z,966.25
2018-12-02T07:18:04.790Z,966.19
2018-12-02T07:19:04.980Z,966.31
2018-12-02T07:20:04.851Z,966.19
2018-12-02T07:21:04.729Z,966.19
2018-12-02T07:22:04.825Z,966.08
2018-12-02T07:23:04.685Z,966.22
2018-12-02T07:24:04.979Z,966.25
2018-12-02T07:25:05.159Z,966.22
2018-12-02T07:26:05.451Z,966.14
2018-12-02T07:27:04.582Z,966.13
2018-12-02T07:28:10.182Z,966.08
2018-12-02T07:29:04.634Z,966.02
2018-12-02T07:30:04.654Z,966.08
2018-12-02T07:31:04.737Z,965.99
2018-12-02T07:32:04.561Z,965.97
2018-12-02T07:33:04.783Z,965.88
2018-12-02T07:34:04.698Z,965.91
2018-12-02T07:35:04.786Z,965.94
2018-12-02T07:36:04.599Z,965.88
2018-12-02T07:37:04.576Z,965.82
2018-12-02T07:38:04.647Z,965.79
2018-12-02T07:39:04.483Z,965.85
2018-12-02T07:40:04.694Z,965.88
2018-12-02T07:41:04.588Z,965.96
2018-12-02T07:42:04.639Z,965.74
2018-12-02T07:43:04.777Z,965.68
2018-12-02T07:44:04.943Z,965.68
2018-12-02T07:45:04.836Z,965.65
2018-12-02T07:46:04.925Z,965.65
2018-12-02T07:47:04.821Z,965.76
2018-12-02T07:48:09.757Z,965.73
2018-12-02T07:49:05.123Z,965.67
2018-12-02T07:50:05.229Z,965.54
2018-12-02T07:51:05.199Z,965.76
2018-12-02T07:52:04.807Z,965.64
2018-12-02T07:53:04.810Z,965.64
2018-12-02T07:54:04.803Z,965.61
2018-12-02T07:55:04.836Z,965.67
2018-12-02T07:56:04.944Z,965.72
2018-12-02T07:57:04.968Z,965.72
2018-12-02T07:58:04.918Z,965.61
2018-12-02T07:59:04.799Z,965.70
2018-12-02T08:00:04.919Z,965.70
2018-12-02T08:01:04.992Z,965.64
2018-12-02T08:02:04.957Z,965.56
2018-12-02T08:03:04.875Z,965.67
2018-12-02T08:04:04.919Z,965.56
2018-12-02T08:05:04.585Z,965.64
2018-12-02T08:06:04.612Z,965.67
2018-12-02T08:07:04.661Z,965.56
2018-12-02T08:08:04.883Z,965.53
2018-12-02T08:09:04.806Z,965.51
2018-12-02T08:10:05.163Z,965.61
2018-12-02T08:11:04.876Z,965.45
2018-12-02T08:12:04.893Z,965.61
2018-12-02T08:13:05.017Z,965.59
2018-12-02T08:14:04.932Z,965.56
2018-12-02T08:15:05.224Z,965.36
2018-12-02T08:16:04.992Z,965.48
2018-12-02T08:17:04.921Z,965.42
2018-12-02T08:18:04.981Z,965.28
2018-12-02T08:19:05.139Z,965.48
2018-12-02T08:20:05.063Z,965.45
2018-12-02T08:21:04.823Z,965.39
2018-12-02T08:22:04.911Z,965.42
2018-12-02T08:23:05.175Z,965.36
2018-12-02T08:24:05.123Z,965.33
2018-12-02T08:25:04.830Z,965.25
2018-12-02T08:26:04.942Z,965.28
2018-12-02T08:27:04.887Z,965.28
2018-12-02T08:28:04.837Z,965.33
2018-12-02T08:29:04.955Z,965.33
2018-12-02T08:30:04.866Z,965.22
2018-12-02T08:31:04.802Z,965.31
2018-12-02T08:32:04.742Z,965.22
2018-12-02T08:33:04.945Z,965.28
2018-12-02T08:34:04.990Z,965.19
2018-12-02T08:35:04.794Z,965.22
2018-12-02T08:36:09.880Z,965.22
2018-12-02T08:37:05.302Z,965.36
2018-12-02T08:38:05.216Z,965.16
2018-12-02T08:39:05.195Z,965.08
2018-12-02T08:40:05.304Z,965.16
2018-12-02T08:41:05.235Z,965.25
2018-12-02T08:42:05.295Z,965.11
2018-12-02T08:43:04.507Z,965.25
2018-12-02T08:44:04.532Z,965.25
2018-12-02T08:45:04.731Z,965.19
2018-12-02T08:46:04.921Z,965.13
2018-12-02T08:47:04.751Z,965.13
2018-12-02T08:48:04.706Z,965.19
2018-12-02T08:49:04.769Z,965.19
2018-12-02T08:50:04.871Z,965.13
2018-12-02T08:51:04.929Z,965.10
2018-12-02T08:52:04.898Z,965.02
2018-12-02T08:53:04.781Z,965.16
2018-12-02T08:54:04.735Z,965.19
2018-12-02T08:55:04.981Z,965.04
2018-12-02T08:56:04.949Z,965.18
2018-12-02T08:57:04.873Z,965.07
2018-12-02T08:58:04.994Z,965.02
2018-12-02T08:59:04.813Z,965.07
2018-12-02T09:00:04.927Z,965.16
2018-12-02T09:01:04.746Z,965.07
2018-12-02T09:02:04.673Z,965.16
2018-12-02T09:03:04.784Z,965.07
2018-12-02T09:04:04.683Z,964.99
2018-12-02T09:05:04.902Z,965.24
2018-12-02T09:06:04.818Z,965.10
2018-12-02T09:07:04.622Z,965.13
2018-12-02T09:08:04.853Z,965.13
2018-12-02T09:09:04.789Z,965.10
2018-12-02T09:10:04.597Z,965.07
2018-12-02T09:11:04.894Z,965.01
2018-12-02T09:12:05.055Z,965.24
2018-12-02T09:13:05.649Z,965.24
2018-12-02T09:14:04.510Z,965.13
2018-12-02T09:15:04.532Z,965.13
2018-12-02T09:16:04.860Z,965.24
2018-12-02T09:17:04.974Z,965.21
2018-12-02T09:18:05.263Z,965.18
2018-12-02T09:19:05.320Z,965.15
2018-12-02T09:20:05.470Z,965.10
2018-12-02T09:21:05.537Z,965.21
2018-12-02T09:22:04.593Z,965.18
2018-12-02T09:23:04.749Z,965.12
2018-12-02T09:24:05.063Z,964.93
2018-12-02T09:25:05.362Z,965.12
2018-12-02T09:26:05.301Z,965.07
2018-12-02T09:27:04.967Z,965.10
2018-12-02T09:28:05.057Z,965.07
2018-12-02T09:29:05.116Z,965.07
2018-12-02T09:30:05.119Z,965.12
2018-12-02T09:31:05.366Z,965.01
2018-12-02T09:32:05.596Z,965.18
2018-12-02T09:33:05.155Z,965.18
2018-12-02T09:34:04.916Z,965.10
2018-12-02T09:35:04.920Z,965.07
2018-12-02T09:36:05.207Z,965.01
2018-12-02T09:37:04.800Z,964.93
2018-12-02T09:38:04.950Z,964.98
2018-12-02T09:39:04.879Z,964.90
2018-12-02T09:40:04.813Z,964.98
2018-12-02T09:41:05.053Z,965.10
2018-12-02T09:42:05.031Z,965.01
2018-12-02T09:43:04.859Z,964.95
2018-12-02T09:44:09.911Z,964.87
2018-12-02T09:45:05.183Z,964.93
2018-12-02T09:46:04.982Z,964.79
2018-12-02T09:47:04.934Z,964.68
2018-12-02T09:48:05.044Z,964.90
2018-12-02T09:49:05.060Z,964.76
2018-12-02T09:50:04.832Z,964.87
2018-12-02T09:51:04.974Z,964.79
2018-12-02T09:52:04.925Z,964.79
2018-12-02T09:53:04.815Z,964.71
2018-12-02T09:54:04.679Z,964.79
2018-12-02T09:55:04.843Z,964.76
2018-12-02T09:56:04.898Z,964.73
2018-12-02T09:57:04.711Z,964.70
2018-12-02T09:58:04.784Z,964.84
2018-12-02T09:59:04.860Z,964.73
2018-12-02T10:00:05.104Z,964.62
2018-12-02T10:01:05.320Z,964.62
2018-12-02T10:02:05.201Z,964.70
2018-12-02T10:03:05.116Z,964.53
2018-12-02T10:04:04.883Z,964.61
2018-12-02T10:05:04.970Z,964.73
2018-12-02T10:06:04.847Z,964.61
2018-12-02T10:07:04.775Z,964.33
2018-12-02T10:08:04.888Z,964.50
2018-12-02T10:09:04.864Z,964.44
2018-12-02T10:10:04.815Z,964.47
2018-12-02T10:11:04.772Z,964.33
2018-12-02T10:12:04.938Z,964.24
2018-12-02T10:13:04.892Z,964.32
2018-12-02T10:14:05.145Z,964.27
2018-12-02T10:15:05.205Z,964.27
2018-12-02T10:16:05.059Z,964.35
2018-12-02T10:17:05.185Z,964.38
2018-12-02T10:18:05.346Z,964.23
2018-12-02T10:19:05.366Z,964.26
2018-12-02T10:20:05.324Z,964.26
2018-12-02T10:21:05.377Z,964.12
2018-12-02T10:22:05.445Z,964.17
2018-12-02T10:23:04.501Z,964.11
2018-12-02T10:24:04.493Z,964.06
2018-12-02T10:25:04.564Z,964.11
2018-12-02T10:26:04.485Z,964.08
2018-12-02T10:27:04.510Z,964.11
2018-12-02T10:28:09.791Z,963.94
2018-12-02T10:29:06.324Z,963.99
2018-12-02T10:30:05.247Z,964.14
2018-12-02T10:31:05.333Z,963.99
2018-12-02T10:32:04.903Z,963.96
2018-12-02T10:33:04.986Z,963.96
2018-12-02T10:34:04.874Z,963.99
2018-12-02T10:35:05.066Z,963.93
2018-12-02T10:36:05.263Z,964.04
2018-12-02T10:37:05.342Z,963.99
2018-12-02T10:38:04.483Z,963.90
2018-12-02T10:39:04.740Z,963.90
2018-12-02T10:40:04.798Z,963.90
2018-12-02T10:41:04.829Z,963.82
2018-12-02T10:42:05.016Z,963.95
2018-12-02T10:43:04.861Z,963.88
2018-12-02T10:44:04.849Z,963.95
2018-12-02T10:45:04.869Z,963.95
2018-12-02T10:46:05.314Z,964.03
2018-12-02T10:47:04.503Z,964.03
2018-12-02T10:48:10.234Z,964.09
2018-12-02T10:49:04.760Z,964.03
2018-12-02T10:50:04.659Z,964.17
2018-12-02T10:51:04.960Z,964.11
2018-12-02T10:52:04.813Z,964.11
2018-12-02T10:53:04.762Z,964.17
2018-12-02T10:54:04.771Z,964.20
2018-12-02T10:55:05.123Z,964.00
2018-12-02T10:56:05.144Z,964.08
2018-12-02T10:57:04.457Z,964.03
2018-12-02T10:58:05.464Z,963.89
2018-12-02T10:59:04.569Z,964.08
2018-12-02T11:00:04.570Z,964.03
2018-12-02T11:01:04.623Z,963.97
2018-12-02T11:02:04.691Z,964.00
2018-12-02T11:03:04.914Z,963.91
2018-12-02T11:04:04.838Z,963.94
2018-12-02T11:05:04.827Z,963.91
2018-12-02T11:06:04.683Z,963.97
2018-12-02T11:07:04.856Z,963.94
2018-12-02T11:08:04.900Z,963.91
2018-12-02T11:09:04.894Z,963.75
2018-12-02T11:10:05.146Z,963.75
2018-12-02T11:11:05.265Z,963.96
2018-12-02T11:12:04.970Z,963.91
2018-12-02T11:13:05.005Z,963.99
2018-12-02T11:14:05.044Z,963.89
2018-12-02T11:15:05.040Z,963.86
2018-12-02T11:16:05.052Z,963.83
2018-12-02T11:17:05.135Z,963.83
2018-12-02T11:18:05.265Z,964.02
2018-12-02T11:19:05.268Z,963.93
2018-12-02T11:20:05.094Z,963.83
2018-12-02T11:21:05.352Z,963.78
2018-12-02T11:22:05.040Z,963.86
2018-12-02T11:23:05.140Z,963.86
2018-12-02T11:24:05.095Z,963.74
2018-12-02T11:25:04.980Z,963.86
2018-12-02T11:26:05.145Z,963.71
2018-12-02T11:27:05.060Z,963.68
2018-12-02T11:28:09.916Z,963.54
2018-12-02T11:29:05.213Z,963.66
2018-12-02T11:30:04.885Z,963.71
2018-12-02T11:31:05.338Z,963.71
2018-12-02T11:32:05.293Z,963.65
2018-12-02T11:33:05.395Z,963.90
2018-12-02T11:34:05.438Z,963.74
2018-12-02T11:35:04.984Z,963.85
2018-12-02T11:36:04.994Z,963.65
2018-12-02T11:37:05.140Z,963.76
2018-12-02T11:38:05.537Z,963.73
2018-12-02T11:39:05.506Z,963.70
2018-12-02T11:40:04.992Z,963.59
2018-12-02T11:41:04.916Z,963.51
2018-12-02T11:42:04.852Z,963.59
2018-12-02T11:43:04.904Z,963.53
2018-12-02T11:44:05.186Z,963.53
2018-12-02T11:45:05.119Z,963.64
2018-12-02T11:46:05.298Z,963.53
2018-12-02T11:47:05.136Z,963.44
2018-12-02T11:48:05.398Z,963.53
2018-12-02T11:49:05.068Z,963.55
2018-12-02T11:50:04.633Z,963.50
2018-12-02T11:51:04.936Z,963.52
2018-12-02T11:52:05.088Z,963.32
2018-12-02T11:53:05.675Z,963.58
2018-12-02T11:54:04.965Z,963.43
2018-12-02T11:55:04.906Z,963.26
2018-12-02T11:56:04.612Z,963.41
2018-12-02T11:57:05.130Z,963.52
2018-12-02T11:58:04.462Z,963.43
2018-12-02T11:59:04.453Z,963.54
2018-12-02T12:00:05.298Z,963.48
2018-12-02T12:01:10.175Z,963.40
2018-12-02T12:02:09.322Z,963.34
2018-12-02T12:03:04.885Z,963.34
2018-12-02T12:04:04.898Z,963.34
2018-12-02T12:05:05.129Z,963.36
2018-12-02T12:06:05.394Z,963.28
2018-12-02T12:07:05.299Z,963.30
2018-12-02T12:08:05.100Z,963.42
2018-12-02T12:09:05.497Z,963.30
2018-12-02T12:10:05.374Z,963.27
2018-12-02T12:11:05.080Z,963.30
2018-12-02T12:12:05.186Z,963.27
2018-12-02T12:13:05.075Z,963.24
2018-12-02T12:14:05.157Z,963.21
2018-12-02T12:15:05.032Z,963.18
2018-12-02T12:16:05.468Z,963.21
2018-12-02T12:17:05.129Z,963.24
2018-12-02T12:18:05.362Z,963.18
2018-12-02T12:19:05.368Z,963.29
2018-12-02T12:20:05.311Z,963.29
2018-12-02T12:21:05.421Z,963.18
2018-12-02T12:22:04.786Z,963.18
2018-12-02T12:23:04.828Z,963.09
2018-12-02T12:24:04.870Z,963.18
2018-12-02T12:25:05.284Z,963.17
2018-12-02T12:26:05.153Z,963.09
2018-12-02T12:27:05.068Z,963.17
2018-12-02T12:28:05.160Z,963.29